createdAt,value
2019-01-12T15:19:21.648Z,5.60
2019-01-12T15:21:52.762Z,5.50
2019-01-12T15:24:23.705Z,5.60
2019-01-12T15:26:54.243Z,6.20
2019-01-12T15:29:26.283Z,6.20
2019-01-12T15:31:57.043Z,6.10
2019-01-12T15:34:30.002Z,5.90
2019-01-12T15:37:04.200Z,5.70
2019-01-12T15:39:36.008Z,5.80
2019-01-12T15:42:06.661Z,5.70
2019-01-12T15:44:44.111Z,5.70
2019-01-12T15:47:19.497Z,5.80
2019-01-12T15:49:52.976Z,5.60
2019-01-12T15:52:24.177Z,5.60
2019-01-12T15:54:57.847Z,5.80
2019-01-12T15:57:31.078Z,5.80
2019-01-12T16:00:02.647Z,5.60
2019-01-12T16:02:32.372Z,5.40
2019-01-12T16:05:07.845Z,5.40
2019-01-12T16:07:45.673Z,5.20
2019-01-12T16:10:17.006Z,5.20
2019-01-12T16:12:49.375Z,5.10
2019-01-12T16:15:27.401Z,5.20
2019-01-12T16:17:57.772Z,5.30
2019-01-12T16:20:38.357Z,5.50
2019-01-12T16:23:10.153Z,5.40
2019-01-12T16:25:39.739Z,5.70
2019-01-12T16:28:09.817Z,5.70
2019-01-12T16:30:41.392Z,5.70
2019-01-12T16:33:11.822Z,5.90
2019-01-12T16:35:41.743Z,5.90
2019-01-12T16:38:11.678Z,5.80
2019-01-12T16:40:43.514Z,5.40
2019-01-12T16:43:15.862Z,5.50
2019-01-12T16:45:45.440Z,5.40
2019-01-12T16:48:15.301Z,5.60
2019-01-12T16:50:45.778Z,5.70
2019-01-12T16:53:15.457Z,5.70
2019-01-12T16:55:45.031Z,5.50
2019-01-12T16:58:21.867Z,5.50
2019-01-12T17:00:51.639Z,5.40
2019-01-12T17:03:42.074Z,5.40
2019-01-12T17:06:11.982Z,5.30
2019-01-12T17:08:42.499Z,5.50
2019-01-12T17:11:12.021Z,5.30
2019-01-12T17:13:41.867Z,5.40
2019-01-12T17:29:53.580Z,5.60
2019-01-12T17:36:58.727Z,5.70
2019-01-12T17:50:00.867Z,5.20
2019-01-12T17:53:42.953Z,5.00
2019-01-12T18:15:55.432Z,3.70
2019-01-12T19:18:07.334Z,3.70
